Time;durP1;ratioP1;P1;durP2;ratioP2;P2;SDS_P1;SDS_P2;PMS_P1;PMS_P2;Temp;Humidity;BMP_temperature;BMP_pressure;BME280_temperature;BME280_humidity;BME280_pressure;Samples;Min_cycle;Max_cycle;Signal;HPM_P1;HPM_P2
2021/04/03 00:01:00;;;;;;;1.50;1.13;;;7.40;96.20;;;;;;5009612;28;20473;-75
2021/04/03 00:03:30;;;;;;;1.50;1.20;;;7.50;95.90;;;;;;5011537;28;20555;-75
2021/04/03 00:05:57;;;;;;;1.50;1.20;;;7.50;95.60;;;;;;4995266;28;20568;-74
2021/04/03 00:08:24;;;;;;;1.50;1.20;;;7.40;93.10;;;;;;5019889;28;20579;-75
2021/04/03 00:10:55;;;;;;;1.57;1.30;;;7.40;92.40;;;;;;4991108;28;20866;-75
2021/04/03 00:13:25;;;;;;;1.50;1.20;;;7.30;91.90;;;;;;5016353;28;20456;-75
2021/04/03 00:15:51;;;;;;;1.50;1.10;;;7.30;91.80;;;;;;4995172;28;21184;-74
2021/04/03 00:18:18;;;;;;;1.50;1.20;;;7.30;91.30;;;;;;5024318;28;20480;-75
2021/04/03 00:20:46;;;;;;;1.53;1.20;;;7.30;91.00;;;;;;5003511;28;20468;-74
2021/04/03 00:23:14;;;;;;;1.50;1.13;;;7.30;90.90;;;;;;4996972;28;20480;-77
2021/04/03 00:25:40;;;;;;;1.50;1.20;;;7.30;90.70;;;;;;5002894;28;20472;-74
2021/04/03 00:28:07;;;;;;;1.50;1.20;;;7.30;90.50;;;;;;5015083;28;20978;-75
2021/04/03 00:30:33;;;;;;;1.50;1.20;;;7.30;90.60;;;;;;5002326;28;20582;-74
2021/04/03 00:33:02;;;;;;;1.53;1.20;;;7.20;90.90;;;;;;5006953;28;20483;-74
2021/04/03 00:35:30;;;;;;;1.60;1.30;;;7.20;91.30;;;;;;5006773;28;20460;-74
2021/04/03 00:37:57;;;;;;;1.53;1.20;;;7.10;91.50;;;;;;5005485;28;20475;-75
2021/04/03 00:40:27;;;;;;;1.50;1.20;;;7.10;91.60;;;;;;5002063;28;20472;-75
2021/04/03 00:42:55;;;;;;;1.57;1.20;;;7.00;92.00;;;;;;5008106;28;20493;-75
2021/04/03 00:45:22;;;;;;;1.53;1.20;;;6.90;92.20;;;;;;5005405;28;20491;-75
2021/04/03 00:47:49;;;;;;;1.50;1.20;;;6.90;92.70;;;;;;5006897;28;21023;-74
2021/04/03 00:50:21;;;;;;;1.60;1.30;;;6.80;93.50;;;;;;5001595;28;20519;-74
2021/04/03 00:52:47;;;;;;;1.57;1.30;;;6.80;93.80;;;;;;5010750;28;20479;-75
2021/04/03 00:55:14;;;;;;;1.60;1.40;;;6.70;94.70;;;;;;5007950;28;20968;-75
2021/04/03 00:57:42;;;;;;;1.50;1.20;;;6.70;94.90;;;;;;5002944;28;20483;-75
2021/04/03 01:00:11;;;;;;;1.53;1.20;;;6.60;95.20;;;;;;5009824;28;20460;-75
2021/04/03 01:02:39;;;;;;;1.50;1.20;;;6.50;95.90;;;;;;5006226;28;20491;-75
2021/04/03 01:05:08;;;;;;;1.53;1.23;;;6.40;96.00;;;;;;5001477;28;20866;-73
2021/04/03 01:07:34;;;;;;;1.60;1.30;;;6.40;95.90;;;;;;5003334;28;20484;-75
2021/04/03 01:10:01;;;;;;;1.50;1.20;;;6.30;96.30;;;;;;5007756;28;20829;-75
2021/04/03 01:12:32;;;;;;;1.50;1.20;;;6.30;96.40;;;;;;4998981;28;21304;-75
2021/04/03 01:15:10;;;;;;;1.50;1.20;;;6.30;96.20;;;;;;5002555;28;20814;-75
2021/04/03 01:17:50;;;;;;;1.50;1.30;;;6.20;96.20;;;;;;5005546;28;20497;-76
2021/04/03 01:20:48;;;;;;;1.57;1.40;;;6.20;96.30;;;;;;4999866;28;20465;-75
2021/04/03 01:23:42;;;;;;;1.50;1.20;;;6.20;96.20;;;;;;4949151;28;20498;-74
2021/04/03 01:26:37;;;;;;;1.50;1.30;;;6.10;96.00;;;;;;4972455;28;20538;-75
2021/04/03 01:29:26;;;;;;;1.53;1.20;;;6.10;95.90;;;;;;5008310;28;20527;-73
2021/04/03 01:31:54;;;;;;;1.57;1.20;;;6.10;95.80;;;;;;4995874;28;20800;-74
2021/04/03 01:34:23;;;;;;;1.50;1.20;;;6.10;95.90;;;;;;5010181;28;20483;-74
2021/04/03 01:36:50;;;;;;;1.50;1.23;;;6.10;95.80;;;;;;5006318;28;20517;-75
2021/04/03 01:39:21;;;;;;;1.50;1.30;;;6.10;95.90;;;;;;5007261;28;20952;-75
2021/04/03 01:41:49;;;;;;;1.50;1.30;;;6.10;96.00;;;;;;4996717;28;20872;-75
2021/04/03 01:44:19;;;;;;;1.50;1.20;;;6.10;95.90;;;;;;5011265;28;20484;-75
2021/04/03 01:46:48;;;;;;;1.53;1.30;;;6.20;95.60;;;;;;4998012;28;20900;-75
2021/04/03 01:49:20;;;;;;;1.53;1.30;;;6.20;95.40;;;;;;5006653;28;20975;-75
2021/04/03 01:51:49;;;;;;;1.60;1.33;;;6.30;95.10;;;;;;5000698;28;20566;-75
2021/04/03 01:54:16;;;;;;;1.53;1.27;;;6.30;94.70;;;;;;5011357;28;20482;-76
2021/04/03 01:56:43;;;;;;;1.50;1.20;;;6.40;94.30;;;;;;4999616;28;20841;-75
2021/04/03 01:59:12;;;;;;;1.60;1.27;;;6.40;94.10;;;;;;5014442;28;20479;-76
2021/04/03 02:01:40;;;;;;;1.53;1.20;;;6.30;93.80;;;;;;5001134;28;20895;-77
2021/04/03 02:04:07;;;;;;;1.50;1.20;;;6.20;93.50;;;;;;5009022;28;20484;-75
2021/04/03 02:06:36;;;;;;;1.50;1.27;;;6.10;94.10;;;;;;5002073;28;21047;-76
2021/04/03 02:09:05;;;;;;;1.50;1.23;;;6.00;93.80;;;;;;5014556;28;20596;-75
2021/04/03 02:11:34;;;;;;;1.57;1.37;;;5.90;94.40;;;;;;4993585;28;20479;-77
2021/04/03 02:14:01;;;;;;;1.50;1.20;;;5.80;94.10;;;;;;5014239;28;20513;-76
2021/04/03 02:16:30;;;;;;;1.50;1.20;;;5.80;93.10;;;;;;4998177;28;20554;-76
2021/04/03 02:18:58;;;;;;;1.50;1.30;;;5.80;92.90;;;;;;5010119;28;20488;-76
2021/04/03 02:21:25;;;;;;;1.50;1.30;;;5.80;92.90;;;;;;4992416;28;20483;-76
2021/04/03 02:23:52;;;;;;;1.53;1.30;;;5.90;92.80;;;;;;5017361;28;20495;-75
2021/04/03 02:26:19;;;;;;;1.53;1.30;;;5.90;92.60;;;;;;4996683;28;20502;-75
2021/04/03 02:28:45;;;;;;;1.53;1.20;;;5.90;92.90;;;;;;5013518;28;20497;-75
2021/04/03 02:31:11;;;;;;;1.50;1.20;;;6.00;93.00;;;;;;4995924;28;20547;-75
2021/04/03 02:33:38;;;;;;;1.57;1.30;;;6.00;93.10;;;;;;5010421;28;20480;-75
2021/04/03 02:36:04;;;;;;;1.60;1.40;;;6.10;93.00;;;;;;4989229;28;20475;-75
2021/04/03 02:38:31;;;;;;;1.50;1.30;;;6.10;92.80;;;;;;5007393;28;20484;-75
2021/04/03 02:40:58;;;;;;;1.50;1.20;;;6.10;93.00;;;;;;4990116;28;20460;-75
2021/04/03 02:43:28;;;;;;;1.57;1.30;;;6.20;93.10;;;;;;5017769;28;20809;-75
2021/04/03 02:45:59;;;;;;;1.50;1.20;;;6.20;92.90;;;;;;4992491;28;20460;-75
2021/04/03 02:48:30;;;;;;;1.57;1.30;;;6.20;93.40;;;;;;5008832;28;20578;-75
2021/04/03 02:51:00;;;;;;;1.53;1.20;;;6.30;93.60;;;;;;4989870;28;20468;-75
2021/04/03 02:53:29;;;;;;;1.57;1.30;;;6.30;93.70;;;;;;5011211;28;20472;-75
2021/04/03 02:55:59;;;;;;;1.53;1.30;;;6.30;94.10;;;;;;4993759;28;20460;-75
2021/04/03 02:58:30;;;;;;;1.50;1.20;;;6.30;94.10;;;;;;5012398;28;20488;-75
2021/04/03 03:00:59;;;;;;;1.60;1.30;;;6.30;94.00;;;;;;4992966;28;20886;-76
2021/04/03 03:03:26;;;;;;;1.57;1.30;;;6.30;94.00;;;;;;5011170;28;20472;-75
2021/04/03 03:05:57;;;;;;;1.53;1.30;;;6.30;94.00;;;;;;4994599;28;20610;-74
2021/04/03 03:08:24;;;;;;;1.50;1.20;;;6.30;93.70;;;;;;5011764;28;20516;-75
2021/04/03 03:10:51;;;;;;;1.53;1.30;;;6.30;93.00;;;;;;4991757;28;20480;-73
2021/04/03 03:13:19;;;;;;;1.50;1.30;;;6.30;91.30;;;;;;5018211;28;20531;-75
2021/04/03 03:15:46;;;;;;;1.50;1.20;;;6.30;90.80;;;;;;4993872;28;20465;-76
2021/04/03 03:18:14;;;;;;;1.50;1.30;;;6.30;90.20;;;;;;5014710;28;20524;-76
2021/04/03 03:20:42;;;;;;;1.50;1.20;;;6.30;89.70;;;;;;4996336;28;20554;-75
2021/04/03 03:23:11;;;;;;;1.50;1.20;;;6.30;88.90;;;;;;5005541;28;20484;-75
2021/04/03 03:25:38;;;;;;;1.50;1.20;;;6.30;88.50;;;;;;5001347;28;20492;-75
2021/04/03 03:28:05;;;;;;;1.60;1.30;;;6.30;88.80;;;;;;5003857;28;20658;-76
2021/04/03 03:30:32;;;;;;;1.53;1.20;;;6.30;88.80;;;;;;4995231;28;20499;-76
2021/04/03 03:32:59;;;;;;;1.53;1.30;;;6.30;89.10;;;;;;5003732;28;20918;-76
2021/04/03 03:35:26;;;;;;;1.53;1.20;;;6.30;88.90;;;;;;4992730;28;20469;-76
2021/04/03 03:37:53;;;;;;;1.50;1.20;;;6.30;88.80;;;;;;4999813;28;20967;-75
2021/04/03 03:40:20;;;;;;;1.60;1.30;;;6.40;88.70;;;;;;4995072;28;21030;-76
2021/04/03 03:42:48;;;;;;;1.50;1.30;;;6.40;88.30;;;;;;5004731;28;21030;-76
2021/04/03 03:45:14;;;;;;;1.53;1.30;;;6.30;88.60;;;;;;5003278;28;20496;-77
2021/04/03 03:47:41;;;;;;;1.53;1.20;;;6.40;88.80;;;;;;4999627;28;20529;-77
2021/04/03 03:50:10;;;;;;;1.50;1.30;;;6.40;88.90;;;;;;4996809;28;20496;-78
2021/04/03 03:52:37;;;;;;;1.53;1.20;;;6.40;89.10;;;;;;4996064;28;20921;-76
2021/04/03 03:55:05;;;;;;;1.50;1.30;;;6.40;89.40;;;;;;4995108;28;20465;-75
2021/04/03 03:57:31;;;;;;;1.50;1.23;;;6.30;89.40;;;;;;5006771;28;20560;-76
2021/04/03 03:59:57;;;;;;;1.50;1.30;;;6.30;89.40;;;;;;5000108;28;20464;-75
2021/04/03 04:02:23;;;;;;;1.50;1.30;;;6.30;89.20;;;;;;5004010;28;20510;-77
2021/04/03 04:04:50;;;;;;;1.53;1.30;;;6.40;89.30;;;;;;5003532;28;20534;-77
2021/04/03 04:07:17;;;;;;;1.57;1.30;;;6.30;89.30;;;;;;5005069;28;20486;-76
2021/04/03 04:09:43;;;;;;;1.60;1.30;;;6.30;89.50;;;;;;5004244;28;20456;-76
2021/04/03 04:12:10;;;;;;;1.53;1.20;;;6.30;89.80;;;;;;4998897;28;20487;-75
2021/04/03 04:14:37;;;;;;;1.50;1.20;;;6.30;90.00;;;;;;5004027;28;20460;-76
2021/04/03 04:17:04;;;;;;;1.53;1.30;;;6.30;90.30;;;;;;4995082;28;20510;-76
2021/04/03 04:19:31;;;;;;;1.50;1.20;;;6.30;90.30;;;;;;4999814;28;20536;-76
2021/04/03 04:21:57;;;;;;;1.50;1.20;;;6.30;90.40;;;;;;4992913;28;20490;-76
2021/04/03 04:24:24;;;;;;;1.53;1.27;;;6.30;90.30;;;;;;5005967;28;20998;-75
2021/04/03 04:26:52;;;;;;;1.50;1.20;;;6.30;90.10;;;;;;4997368;28;20896;-76
2021/04/03 04:29:18;;;;;;;1.50;1.20;;;6.30;90.00;;;;;;5010627;28;20530;-76
2021/04/03 04:31:44;;;;;;;1.53;1.30;;;6.40;90.00;;;;;;5001086;28;21043;-77
2021/04/03 04:34:11;;;;;;;1.53;1.30;;;6.40;89.80;;;;;;5009495;28;21009;-76
2021/04/03 04:36:37;;;;;;;1.60;1.30;;;6.40;89.70;;;;;;4997870;28;21022;-77
2021/04/03 04:39:04;;;;;;;1.50;1.20;;;6.40;89.50;;;;;;5016150;28;20484;-77
2021/04/03 04:41:32;;;;;;;1.50;1.20;;;6.40;89.40;;;;;;4994817;28;20475;-77
2021/04/03 04:43:58;;;;;;;1.53;1.23;;;6.40;89.20;;;;;;5012759;28;20546;-77
2021/04/03 04:46:24;;;;;;;1.50;1.30;;;6.40;89.50;;;;;;4991289;28;20483;-77
2021/04/03 04:48:50;;;;;;;1.50;1.20;;;6.30;89.50;;;;;;5011999;28;20692;-77
2021/04/03 04:51:18;;;;;;;1.50;1.30;;;6.40;89.70;;;;;;4995640;28;20550;-77
2021/04/03 04:53:44;;;;;;;1.53;1.27;;;6.30;89.60;;;;;;5012141;28;20465;-76
2021/04/03 04:56:11;;;;;;;1.50;1.20;;;6.40;89.90;;;;;;4993681;28;20479;-76
2021/04/03 04:58:38;;;;;;;1.50;1.20;;;6.40;90.10;;;;;;5016190;28;20502;-75
2021/04/03 05:01:04;;;;;;;1.60;1.27;;;6.40;90.50;;;;;;4990495;28;20477;-76
2021/04/03 05:03:30;;;;;;;1.50;1.20;;;6.40;90.60;;;;;;5020414;28;20466;-76
2021/04/03 05:05:57;;;;;;;1.50;1.20;;;6.40;90.60;;;;;;4980682;28;20489;-76
2021/04/03 05:08:23;;;;;;;1.50;1.20;;;6.40;90.50;;;;;;5017814;28;20868;-76
2021/04/03 05:10:50;;;;;;;1.50;1.30;;;6.40;90.40;;;;;;4989367;28;20465;-78
2021/04/03 05:13:16;;;;;;;1.60;1.30;;;6.40;90.30;;;;;;5020173;28;20517;-76
2021/04/03 05:15:43;;;;;;;1.50;1.20;;;6.40;90.40;;;;;;4997718;28;20853;-76
2021/04/03 05:18:09;;;;;;;1.50;1.30;;;6.40;90.40;;;;;;5011299;28;20490;-75
2021/04/03 05:20:36;;;;;;;1.53;1.30;;;6.40;90.30;;;;;;5000665;28;20476;-76
2021/04/03 05:23:02;;;;;;;1.50;1.20;;;6.40;90.40;;;;;;5005266;28;20900;-76
2021/04/03 05:25:29;;;;;;;1.50;1.27;;;6.40;90.40;;;;;;4998854;28;20495;-76
2021/04/03 05:27:55;;;;;;;1.60;1.30;;;6.40;90.60;;;;;;5001601;28;20502;-77
2021/04/03 05:30:22;;;;;;;1.50;1.20;;;6.40;90.60;;;;;;5002311;28;20948;-77
2021/04/03 05:32:49;;;;;;;1.50;1.20;;;6.40;90.50;;;;;;5008614;28;20893;-76
2021/04/03 05:35:16;;;;;;;1.50;1.20;;;6.40;90.30;;;;;;5004493;28;20465;-76
2021/04/03 05:37:42;;;;;;;1.50;1.20;;;6.40;90.30;;;;;;5009423;28;20502;-77
2021/04/03 05:40:10;;;;;;;1.50;1.20;;;6.40;90.40;;;;;;5001427;28;20509;-76
2021/04/03 05:42:37;;;;;;;1.50;1.17;;;6.50;90.40;;;;;;5010689;28;21012;-76
2021/04/03 05:45:06;;;;;;;1.50;1.20;;;6.50;90.40;;;;;;5001189;28;20500;-77
2021/04/03 05:47:34;;;;;;;1.53;1.30;;;6.50;90.60;;;;;;5000623;28;20877;-77
2021/04/03 05:50:01;;;;;;;1.50;1.27;;;6.50;90.40;;;;;;5007847;28;20527;-76
2021/04/03 05:52:28;;;;;;;1.50;1.20;;;6.60;90.60;;;;;;5001874;28;20483;-76
2021/04/03 05:54:54;;;;;;;1.50;1.20;;;6.70;90.80;;;;;;5003559;28;20527;-76
2021/04/03 05:57:23;;;;;;;1.50;1.20;;;6.70;90.60;;;;;;5005463;28;20925;-76
2021/04/03 05:59:50;;;;;;;1.50;1.20;;;6.80;90.40;;;;;;5009022;28;20460;-76
2021/04/03 06:02:16;;;;;;;1.53;1.20;;;6.90;90.20;;;;;;4997463;28;20481;-76
2021/04/03 06:04:42;;;;;;;1.50;1.20;;;6.90;90.30;;;;;;5009776;28;20488;-76
2021/04/03 06:07:10;;;;;;;1.50;1.20;;;6.90;90.20;;;;;;5001875;28;21005;-77
2021/04/03 06:09:36;;;;;;;1.50;1.20;;;7.00;90.60;;;;;;5002554;28;20491;-76
2021/04/03 06:12:04;;;;;;;1.50;1.20;;;7.20;90.50;;;;;;5000929;28;20507;-76
2021/04/03 06:14:35;;;;;;;1.50;1.10;;;7.30;90.30;;;;;;5009744;28;21036;-76
2021/04/03 06:17:03;;;;;;;1.50;1.20;;;7.40;89.80;;;;;;5001350;28;20650;-75
2021/04/03 06:19:29;;;;;;;1.53;1.30;;;7.60;89.60;;;;;;4998871;28;20472;-75
2021/04/03 06:21:57;;;;;;;1.50;1.20;;;7.70;89.50;;;;;;4999725;28;20730;-76
2021/04/03 06:24:27;;;;;;;1.50;1.17;;;7.90;88.80;;;;;;5009928;28;20488;-75
2021/04/03 06:26:58;;;;;;;1.57;1.20;;;8.00;88.40;;;;;;4997107;28;20480;-74
2021/04/03 06:29:31;;;;;;;1.53;1.20;;;8.10;88.50;;;;;;5002085;28;20468;-74
2021/04/03 06:31:59;;;;;;;1.50;1.20;;;8.30;88.20;;;;;;4992856;28;20483;-74
2021/04/03 06:34:30;;;;;;;1.50;1.20;;;8.50;88.00;;;;;;5010115;28;20467;-75
2021/04/03 06:36:57;;;;;;;1.50;1.20;;;8.50;86.90;;;;;;5009956;28;20510;-75
2021/04/03 06:39:25;;;;;;;1.70;1.50;;;8.40;86.90;;;;;;5008573;28;20666;-74
2021/04/03 06:41:52;;;;;;;1.50;1.20;;;8.40;87.20;;;;;;5005462;28;20503;-75
2021/04/03 06:44:19;;;;;;;1.50;1.10;;;8.40;86.80;;;;;;5013458;28;20499;-74
2021/04/03 06:46:47;;;;;;;1.53;1.10;;;8.50;86.70;;;;;;5005602;28;20483;-74
2021/04/03 06:49:17;;;;;;;1.53;1.20;;;8.50;86.40;;;;;;5007697;28;20469;-75
2021/04/03 06:51:44;;;;;;;1.50;1.20;;;8.60;86.60;;;;;;5007623;28;20558;-74
2021/04/03 06:54:13;;;;;;;1.50;1.10;;;8.70;85.90;;;;;;5014766;28;20833;-75
2021/04/03 06:56:40;;;;;;;1.50;1.17;;;8.90;85.90;;;;;;4996817;28;20482;-75
2021/04/03 06:59:16;;;;;;;1.50;1.20;;;9.10;85.80;;;;;;5009892;28;20635;-75
2021/04/03 07:01:49;;;;;;;1.53;1.10;;;9.20;85.30;;;;;;4998325;28;20495;-75
2021/04/03 07:04:27;;;;;;;1.50;1.10;;;9.40;85.00;;;;;;5011731;28;20488;-75
2021/04/03 07:06:54;;;;;;;1.50;1.10;;;9.50;84.60;;;;;;5004695;28;20471;-75
2021/04/03 07:09:21;;;;;;;1.50;1.10;;;9.60;84.20;;;;;;5009401;28;20561;-74
2021/04/03 07:11:50;;;;;;;1.50;1.07;;;9.60;84.00;;;;;;5002263;28;20554;-76
2021/04/03 07:14:18;;;;;;;1.50;1.10;;;9.70;83.90;;;;;;5012893;28;20453;-75
2021/04/03 07:16:46;;;;;;;1.50;1.10;;;9.90;84.00;;;;;;5002665;28;20782;-76
2021/04/03 07:19:14;;;;;;;1.50;1.10;;;10.00;83.70;;;;;;5006741;28;20483;-76
2021/04/03 07:21:41;;;;;;;1.50;1.10;;;10.10;83.20;;;;;;4996364;28;20515;-76
2021/04/03 07:24:09;;;;;;;1.50;1.20;;;10.10;83.30;;;;;;5009168;28;20456;-75
2021/04/03 07:26:37;;;;;;;1.50;1.10;;;10.20;83.10;;;;;;5001113;28;20483;-75
2021/04/03 07:29:04;;;;;;;1.50;1.10;;;10.30;82.00;;;;;;5013972;28;20488;-75
2021/04/03 07:31:38;;;;;;;1.50;1.07;;;10.30;82.50;;;;;;4993798;28;20479;-75
2021/04/03 07:34:04;;;;;;;1.50;1.10;;;10.30;82.30;;;;;;5005393;28;20475;-75
2021/04/03 07:36:33;;;;;;;1.50;1.20;;;10.40;81.60;;;;;;4980429;28;20495;-76
2021/04/03 07:38:59;;;;;;;1.50;1.10;;;10.30;81.40;;;;;;5007294;28;20531;-76
2021/04/03 07:41:39;;;;;;;1.50;1.10;;;10.40;81.60;;;;;;4996153;28;20997;-75
2021/04/03 07:44:14;;;;;;;1.50;1.00;;;10.60;81.50;;;;;;5013983;28;20460;-75
2021/04/03 07:46:43;;;;;;;1.50;1.10;;;10.70;81.10;;;;;;4996434;28;20490;-76
2021/04/03 07:49:11;;;;;;;1.50;1.00;;;10.80;80.50;;;;;;5011849;28;20487;-75
2021/04/03 07:51:45;;;;;;;1.50;1.07;;;11.00;79.50;;;;;;5002410;28;20562;-75
2021/04/03 07:54:31;;;;;;;1.50;1.00;;;11.20;79.90;;;;;;5015562;28;20487;-75
2021/04/03 07:57:03;;;;;;;1.50;1.00;;;11.40;77.30;;;;;;4995095;28;20472;-76
2021/04/03 07:59:53;;;;;;;1.50;1.00;;;11.40;77.40;;;;;;5009202;28;20480;-77
2021/04/03 08:02:21;;;;;;;1.50;1.00;;;11.40;77.10;;;;;;5010399;28;20470;-77
2021/04/03 08:04:48;;;;;;;1.50;1.10;;;11.50;77.20;;;;;;5014494;28;20588;-77
2021/04/03 08:07:15;;;;;;;1.50;1.00;;;11.60;76.70;;;;;;5003634;28;20554;-75
2021/04/03 08:09:41;;;;;;;1.50;1.00;;;11.80;75.70;;;;;;5012529;28;20464;-76
2021/04/03 08:12:09;;;;;;;1.50;1.00;;;11.80;75.30;;;;;;5011426;28;20475;-76
2021/04/03 08:14:38;;;;;;;1.50;1.00;;;11.90;75.40;;;;;;5017040;28;20908;-76
2021/04/03 08:17:08;;;;;;;1.50;1.00;;;12.00;74.90;;;;;;5007495;28;20544;-76
2021/04/03 08:19:38;;;;;;;1.50;1.00;;;12.10;74.30;;;;;;5013306;28;20468;-76
2021/04/03 08:22:09;;;;;;;1.50;1.00;;;12.20;74.70;;;;;;5003136;28;20482;-78
2021/04/03 08:24:35;;;;;;;1.50;1.00;;;12.30;74.40;;;;;;5008478;28;20729;-77
2021/04/03 08:27:02;;;;;;;1.50;0.97;;;12.50;74.70;;;;;;5006756;28;20947;-76
2021/04/03 08:29:30;;;;;;;1.50;1.00;;;12.60;74.10;;;;;;5010259;28;20468;-78
2021/04/03 08:31:59;;;;;;;1.70;1.37;;;12.70;73.50;;;;;;5002995;28;20480;-77
2021/04/03 08:34:27;;;;;;;1.50;1.00;;;12.70;74.30;;;;;;5007016;28;20895;-77
2021/04/03 08:36:55;;;;;;;1.50;1.00;;;12.90;74.20;;;;;;5005275;28;20558;-77
2021/04/03 08:39:23;;;;;;;1.50;1.00;;;12.90;73.70;;;;;;5009489;28;20495;-76
2021/04/03 08:41:51;;;;;;;1.50;1.00;;;13.00;73.40;;;;;;5007804;28;20483;-78
2021/04/03 08:44:19;;;;;;;1.50;0.90;;;13.10;73.80;;;;;;5013516;28;20547;-77
2021/04/03 08:46:47;;;;;;;1.50;0.90;;;13.20;73.50;;;;;;5004309;28;20483;-77
2021/04/03 08:49:22;;;;;;;1.50;1.00;;;13.20;72.30;;;;;;5011014;28;20472;-77
2021/04/03 08:51:50;;;;;;;1.50;1.00;;;13.00;72.50;;;;;;5005314;28;20487;-77
2021/04/03 08:54:16;;;;;;;1.50;1.00;;;13.00;73.50;;;;;;5013059;28;20464;-76
2021/04/03 08:56:43;;;;;;;1.50;1.00;;;13.10;73.20;;;;;;4999675;28;20498;-77
2021/04/03 08:59:12;;;;;;;1.50;1.00;;;13.10;73.10;;;;;;5016179;28;20807;-77
2021/04/03 09:01:42;;;;;;;1.50;1.10;;;13.10;74.40;;;;;;5003020;28;20483;-76
2021/04/03 09:04:09;;;;;;;1.50;1.00;;;13.00;73.80;;;;;;5012621;28;20993;-76
2021/04/03 09:06:44;;;;;;;1.50;1.10;;;13.10;73.80;;;;;;4998212;28;21011;-75
2021/04/03 09:09:12;;;;;;;1.50;1.00;;;12.90;73.30;;;;;;5012676;28;20519;-77
2021/04/03 09:11:39;;;;;;;1.50;1.00;;;12.80;74.60;;;;;;4998364;28;20490;-76
2021/04/03 09:14:05;;;;;;;1.50;1.00;;;12.90;72.90;;;;;;5005128;28;20505;-78
2021/04/03 09:16:37;;;;;;;1.50;1.03;;;13.00;73.40;;;;;;4998899;28;20483;-77
2021/04/03 09:19:03;;;;;;;1.50;1.00;;;13.20;73.10;;;;;;5015491;28;20537;-76
2021/04/03 09:21:30;;;;;;;1.50;1.00;;;13.30;72.80;;;;;;4993597;28;20492;-77
2021/04/03 09:23:57;;;;;;;1.50;1.00;;;13.50;73.80;;;;;;5016503;28;20460;-77
2021/04/03 09:26:39;;;;;;;1.50;1.00;;;13.80;72.60;;;;;;5000206;28;20483;-78
2021/04/03 09:29:08;;;;;;;1.50;0.90;;;13.80;71.80;;;;;;5015795;28;20491;-75
2021/04/03 09:31:42;;;;;;;1.50;0.90;;;13.70;72.10;;;;;;5000653;28;20475;-75
2021/04/03 09:34:08;;;;;;;1.50;1.00;;;13.80;71.90;;;;;;5015021;28;20470;-77
2021/04/03 09:36:45;;;;;;;1.50;0.90;;;13.80;72.30;;;;;;5004802;28;20687;-78
2021/04/03 09:39:13;;;;;;;1.50;1.00;;;13.90;72.40;;;;;;5011118;28;20496;-77
2021/04/03 09:41:46;;;;;;;1.50;0.90;;;14.10;72.00;;;;;;5000846;28;21233;-77
2021/04/03 09:44:12;;;;;;;1.50;0.90;;;14.20;71.20;;;;;;5015010;28;20468;-76
2021/04/03 09:46:39;;;;;;;1.50;1.00;;;14.30;71.60;;;;;;5003321;28;20479;-76
2021/04/03 09:49:08;;;;;;;1.50;1.00;;;14.40;71.80;;;;;;5006485;28;20483;-77
2021/04/03 09:51:34;;;;;;;1.50;0.90;;;14.60;71.30;;;;;;4994628;28;20478;-77
2021/04/03 09:54:01;;;;;;;1.50;1.00;;;14.70;71.20;;;;;;5013974;28;20957;-77
2021/04/03 09:56:27;;;;;;;1.50;1.00;;;14.70;70.90;;;;;;4996593;28;20484;-76
2021/04/03 09:58:54;;;;;;;1.50;0.90;;;14.80;70.40;;;;;;5019164;28;20877;-76
2021/04/03 10:01:21;;;;;;;1.50;1.00;;;14.90;70.60;;;;;;5000480;28;20479;-78
2021/04/03 10:03:47;;;;;;;1.50;1.00;;;15.00;69.80;;;;;;5012033;28;20530;-76
2021/04/03 10:06:13;;;;;;;1.50;0.90;;;15.20;70.60;;;;;;4994695;28;20491;-76
2021/04/03 10:08:40;;;;;;;1.50;0.90;;;15.30;69.00;;;;;;5015309;28;20487;-75
2021/04/03 10:11:06;;;;;;;1.50;1.00;;;15.30;69.90;;;;;;4997253;28;20529;-76
2021/04/03 10:13:32;;;;;;;1.50;1.00;;;15.30;68.60;;;;;;5007755;28;20507;-76
2021/04/03 10:16:00;;;;;;;1.50;0.90;;;15.40;70.10;;;;;;4992515;28;20469;-76
2021/04/03 10:18:26;;;;;;;1.50;1.00;;;15.40;68.30;;;;;;5014520;28;20517;-76
2021/04/03 10:20:55;;;;;;;1.50;1.00;;;15.30;68.30;;;;;;4991025;28;20975;-76
2021/04/03 10:23:21;;;;;;;1.50;0.90;;;15.30;70.00;;;;;;5011283;28;21003;-77
2021/04/03 10:25:49;;;;;;;1.50;1.10;;;15.30;68.80;;;;;;4997119;28;20511;-77
2021/04/03 10:28:16;;;;;;;1.53;1.00;;;15.40;69.30;;;;;;5013631;28;20492;-77
2021/04/03 10:30:42;;;;;;;1.50;0.90;;;15.50;69.40;;;;;;5002925;28;20472;-77
2021/04/03 10:33:09;;;;;;;1.50;0.90;;;15.60;69.30;;;;;;5005930;28;20591;-77
2021/04/03 10:35:36;;;;;;;1.50;0.90;;;15.70;68.80;;;;;;5004782;28;20461;-77
2021/04/03 10:38:02;;;;;;;1.50;0.90;;;15.70;68.70;;;;;;5001195;28;20993;-79
2021/04/03 10:40:29;;;;;;;1.50;0.93;;;15.80;69.00;;;;;;5002637;28;20864;-78
2021/04/03 10:42:55;;;;;;;1.50;1.00;;;15.80;68.60;;;;;;5012075;28;20517;-76
2021/04/03 10:45:22;;;;;;;1.50;1.00;;;15.70;69.30;;;;;;5002306;28;20493;-78
2021/04/03 10:47:48;;;;;;;1.50;0.90;;;15.80;68.30;;;;;;5003145;28;20570;-78
2021/04/03 10:50:16;;;;;;;1.50;0.90;;;15.90;69.30;;;;;;5001950;28;20475;-77
2021/04/03 10:52:43;;;;;;;1.50;1.00;;;16.10;69.10;;;;;;5011125;28;20517;-77
2021/04/03 10:55:10;;;;;;;1.50;0.90;;;16.00;68.30;;;;;;5003695;28;20469;-77
2021/04/03 10:57:36;;;;;;;1.50;0.90;;;16.10;69.10;;;;;;5000268;28;20490;-77
2021/04/03 11:00:05;;;;;;;1.50;0.90;;;16.10;68.80;;;;;;5003675;28;20474;-76
2021/04/03 11:02:33;;;;;;;1.50;0.93;;;16.20;68.80;;;;;;5007105;28;20475;-77
2021/04/03 11:05:00;;;;;;;1.50;0.97;;;16.40;68.60;;;;;;5000291;28;20492;-77
2021/04/03 11:07:27;;;;;;;1.50;1.00;;;16.40;68.30;;;;;;5001084;28;20496;-77
2021/04/03 11:09:53;;;;;;;1.50;0.90;;;16.30;67.60;;;;;;5006015;28;20474;-76
2021/04/03 11:12:20;;;;;;;1.50;0.90;;;16.10;67.80;;;;;;5005162;28;20479;-77
2021/04/03 11:14:46;;;;;;;1.50;0.90;;;15.90;68.80;;;;;;5003141;28;20457;-76
2021/04/03 11:17:12;;;;;;;6.13;1.30;;;15.90;68.80;;;;;;4994396;28;20529;-76
2021/04/03 11:19:39;;;;;;;1.50;1.00;;;15.70;69.50;;;;;;5005854;28;20476;-77
2021/04/03 11:22:06;;;;;;;1.50;1.00;;;15.70;70.60;;;;;;5007084;28;20845;-77
2021/04/03 11:24:34;;;;;;;1.50;1.00;;;15.80;70.60;;;;;;5010164;28;20488;-77
2021/04/03 11:27:00;;;;;;;1.50;0.90;;;16.00;70.00;;;;;;4986112;28;20820;-77
2021/04/03 11:29:27;;;;;;;1.50;0.90;;;16.10;69.10;;;;;;4999370;28;20484;-77
2021/04/03 11:31:53;;;;;;;1.50;1.00;;;16.10;68.80;;;;;;5001029;28;20498;-77
2021/04/03 11:34:20;;;;;;;1.50;0.90;;;16.30;69.40;;;;;;5012010;28;20475;-76
2021/04/03 11:36:46;;;;;;;1.47;0.90;;;16.50;69.40;;;;;;5005981;28;20510;-77
2021/04/03 11:39:16;;;;;;;1.50;1.00;;;16.60;68.40;;;;;;5021435;28;20907;-77
2021/04/03 11:41:44;;;;;;;1.50;0.90;;;16.50;67.60;;;;;;5026126;22;20506;-76
2021/04/03 11:44:10;;;;;;;1.50;1.00;;;16.20;67.60;;;;;;5047689;28;20463;-76
2021/04/03 11:46:37;;;;;;;1.50;0.93;;;16.00;68.60;;;;;;5018983;22;20542;-76
2021/04/03 11:49:03;;;;;;;3.67;3.47;;;16.00;69.60;;;;;;4985566;28;20992;-76
2021/04/03 11:51:31;;;;;;;1.50;0.90;;;16.10;69.00;;;;;;4974131;28;20485;-75
2021/04/03 11:53:58;;;;;;;1.50;0.90;;;15.90;67.50;;;;;;4985847;28;20525;-75
2021/04/03 11:56:28;;;;;;;1.47;0.93;;;15.80;69.10;;;;;;4980199;28;20584;-76
2021/04/03 11:58:55;;;;;;;1.50;0.90;;;16.00;69.00;;;;;;4989539;28;21082;-76
2021/04/03 12:01:22;;;;;;;1.40;0.90;;;15.70;69.00;;;;;;5002888;22;20517;-74
2021/04/03 12:03:48;;;;;;;1.50;0.90;;;15.80;69.90;;;;;;5053795;22;20499;-76
2021/04/03 12:06:14;;;;;;;1.50;0.90;;;15.90;68.40;;;;;;5000399;28;20476;-75
2021/04/03 12:08:41;;;;;;;1.50;0.90;;;15.80;69.20;;;;;;5029237;28;20482;-75
2021/04/03 12:11:10;;;;;;;1.50;0.90;;;15.80;70.00;;;;;;5025112;28;20490;-76
2021/04/03 12:13:36;;;;;;;1.50;0.90;;;15.90;69.20;;;;;;5007192;28;20463;-75
2021/04/03 12:16:05;;;;;;;1.47;0.90;;;15.90;69.10;;;;;;4998502;28;20467;-77
2021/04/03 12:18:33;;;;;;;1.47;0.90;;;15.80;68.90;;;;;;5007776;28;20553;-77
2021/04/03 12:20:59;;;;;;;1.47;0.90;;;15.60;69.40;;;;;;5006645;28;20467;-75
2021/04/03 12:23:29;;;;;;;1.50;0.90;;;15.50;69.20;;;;;;5010656;28;20566;-74
2021/04/03 12:25:58;;;;;;;1.47;0.90;;;15.70;70.90;;;;;;5010074;28;20495;-75
2021/04/03 12:28:24;;;;;;;1.50;0.93;;;15.80;69.20;;;;;;4987294;28;20481;-77
2021/04/03 12:30:50;;;;;;;1.50;1.00;;;15.80;69.30;;;;;;4983575;28;20483;-77
2021/04/03 12:33:18;;;;;;;1.50;1.00;;;15.90;70.20;;;;;;5010732;28;20471;-77
2021/04/03 12:35:44;;;;;;;1.47;0.90;;;16.20;70.00;;;;;;5010620;28;20468;-77
2021/04/03 12:38:10;;;;;;;1.50;0.90;;;16.30;67.90;;;;;;4982255;28;20873;-76
2021/04/03 12:40:37;;;;;;;1.50;1.00;;;16.50;67.80;;;;;;5011031;28;20517;-77
2021/04/03 12:43:03;;;;;;;1.50;1.00;;;16.60;66.70;;;;;;4998128;28;20623;-77
2021/04/03 12:45:29;;;;;;;1.50;1.00;;;16.40;67.20;;;;;;5008843;28;20493;-77
2021/04/03 12:47:56;;;;;;;1.50;0.90;;;16.40;66.10;;;;;;4981757;28;20484;-77
2021/04/03 12:50:24;;;;;;;1.50;0.90;;;16.30;67.50;;;;;;5010767;28;20468;-77
2021/04/03 12:52:51;;;;;;;1.50;1.00;;;16.50;67.10;;;;;;5004911;28;20483;-77
2021/04/03 12:55:17;;;;;;;1.50;0.90;;;16.50;66.70;;;;;;5002850;28;20469;-76
2021/04/03 12:57:44;;;;;;;1.50;0.90;;;16.50;67.20;;;;;;4987038;28;20495;-77